Flight Track Log - Related Links

Times and Time Zones

All times are in EDT time to prevent confusion due to time zone crossing. See the NASA430 flight status page for this flight to view local times or setup timezone preferences in your user account.

Time Position Orientation Groundspeed Altitude Reporting Facility
EDT Latitude Longitude Course Direction KTS MPH feet Rate Location/Type
Sat 02:07:46 PM 64.8667 -147.7167 243° Southwest 110 127 3,700  Level Anchorage Center
Sat 02:08:46 PM 64.9000 -147.6833 23° Northeast 120 138 4,600 800 Climbing Anchorage Center
Sat 02:09:46 PM 64.9500 -147.7000 352° North 140 161 5,300 750 Climbing Anchorage Center
Sat 02:10:46 PM 64.9833 -147.7000 360° North 150 173 6,100 800 Climbing Anchorage Center
Sat 02:11:00 PM 64.6879 -148.4393 249° West  Level FlightAware Approximate
Sat 02:11:46 PM 65.0167 -147.7500 328° Northwest 160 184 6,900  Level Anchorage Center
Sat 02:12:00 PM 64.6640 -148.5299 245° Southwest  Level FlightAware Approximate
Sat 02:12:46 PM 65.0000 -147.8333 245° Southwest 150 173 7,700  Level Anchorage Center
Sat 02:13:00 PM 64.6442 -148.6267 243° Southwest  Level FlightAware Approximate
Sat 02:13:46 PM 64.9833 -147.9333 249° West 160 184 8,000  Level Anchorage Center
Sat 02:14:46 PM 64.9500 -148.0333 232° Southwest 180 207 8,000  Level Anchorage Center
Sat 02:15:46 PM 64.9333 -148.1333 249° West 190 219 8,000  Level Anchorage Center
Sat 02:16:46 PM 64.9000 -148.2500 236° Southwest 190 219 8,000  Level Anchorage Center
Sat 02:17:47 PM 64.8833 -148.3667 251° West 190 219 8,000  Level Anchorage Center
Sat 02:18:47 PM 64.8667 -148.4667 249° West 190 219 8,000  Level Anchorage Center
Sat 02:19:47 PM 64.8333 -148.5833 236° Southwest 190 219 8,000  Level Anchorage Center
Sat 02:20:47 PM 64.8167 -148.6833 249° West 190 219 8,000  Level Anchorage Center
Sat 02:21:47 PM 64.7833 -148.8000 236° Southwest 190 219 8,000  Level Anchorage Center
Sat 02:22:47 PM 64.7500 -148.9167 236° Southwest 190 219 8,000  Level Anchorage Center
Sat 02:23:47 PM 64.7333 -149.0167 249° West 190 219 8,000  Level Anchorage Center
Sat 02:24:47 PM 64.7000 -149.1333 236° Southwest 190 219 8,000  Level Anchorage Center
Sat 02:25:47 PM 64.6833 -149.2333 249° West 190 219 8,000  Level Anchorage Center
Sat 02:26:47 PM 64.6500 -149.3500 236° Southwest 190 219 8,000  Level Anchorage Center
Sat 02:27:47 PM 64.6333 -149.4667 252° West 190 219 8,000  Level Anchorage Center
Sat 02:28:48 PM 64.6000 -149.5833 236° Southwest 190 219 8,000  Level Anchorage Center
Sat 02:29:48 PM 64.5833 -149.6833 249° West 190 219 8,000  Level Anchorage Center
Sat 02:30:48 PM 64.5500 -149.7833 232° Southwest 200 230 8,000  Level Anchorage Center
Sat 02:31:48 PM 64.5333 -149.9000 252° West 200 230 8,000  Level Anchorage Center
Sat 02:32:48 PM 64.5000 -150.0167 236° Southwest 200 230 8,000  Level Anchorage Center
Sat 02:33:48 PM 64.4833 -150.1167 249° West 200 230 8,000  Level Anchorage Center
Sat 02:34:49 PM 64.4500 -150.2333 237° Southwest 190 219 8,000  Level Anchorage Center
Sat 02:35:49 PM 64.4167 -150.3333 232° Southwest 190 219 8,000  Level Anchorage Center
Sat 02:36:49 PM 64.4000 -150.4500 252° West 200 230 8,000  Level Anchorage Center
Sat 02:37:49 PM 64.3667 -150.5500 232° Southwest 190 219 8,000  Level Anchorage Center
Sat 02:38:49 PM 64.3333 -150.6667 237° Southwest 200 230 8,000  Level Anchorage Center
Sat 02:39:49 PM 64.3167 -150.7833 252° West 200 230 8,000  Level Anchorage Center
Sat 02:40:49 PM 64.2833 -150.8833 232° Southwest 200 230 8,000  Level Anchorage Center
Sat 02:41:49 PM 64.2667 -151.0000 252° West 190 219 8,000  Level Anchorage Center
Sat 02:42:49 PM 64.2333 -151.1000 233° Southwest 200 230 8,000  Level Anchorage Center
Sat 02:43:49 PM 64.2000 -151.2167 237° Southwest 200 230 8,000  Level Anchorage Center
Sat 02:44:50 PM 64.1833 -151.3167 249° West 190 219 8,000  Level Anchorage Center
Sat 02:45:50 PM 64.1500 -151.4333 237° Southwest 200 230 8,000  Level Anchorage Center
Sat 02:46:50 PM 64.1167 -151.5333 233° Southwest 200 230 8,000  Level Anchorage Center
Sat 02:47:50 PM 64.1000 -151.6333 249° West 190 219 8,000  Level Anchorage Center
Sat 02:48:50 PM 64.0667 -151.7500 237° Southwest 200 230 8,000  Level Anchorage Center
Sat 02:49:50 PM 64.0333 -151.8500 233° Southwest 190 219 8,000  Level Anchorage Center
Sat 02:50:50 PM 64.0167 -151.9667 252° West 190 219 8,000  Level Anchorage Center
Sat 02:51:50 PM 63.9833 -152.0667 233° Southwest 190 219 8,000  Level Anchorage Center
Sat 02:52:50 PM 63.9667 -152.1667 249° West 190 219 8,000  Level Anchorage Center

Login

Don't have an account? Register now (free) for customized features, flight alerts, and more!